Time;durP1;ratioP1;P1;durP2;ratioP2;P2;SDS_P1;SDS_P2;PMS_P1;PMS_P2;Temp;Humidity;BMP_temperature;BMP_pressure;BME280_temperature;BME280_humidity;BME280_pressure;Samples;Min_cycle;Max_cycle;Signal;HPM_P1;HPM_P2
2021/03/25 00:00:40;;;;;;;2.40;1.65;;;24.30;41.20;;;;;;5058186;28;20804;-65
2021/03/25 00:03:11;;;;;;;2.03;1.30;;;24.20;41.10;;;;;;5073157;28;20514;-65
2021/03/25 00:05:37;;;;;;;2.45;1.30;;;24.20;41.10;;;;;;5073490;28;20455;-65
2021/03/25 00:08:06;;;;;;;2.55;1.40;;;24.20;41.10;;;;;;5070961;28;20040;-65
2021/03/25 00:10:35;;;;;;;2.20;1.40;;;24.20;41.10;;;;;;5082527;28;20371;-65
2021/03/25 00:13:01;;;;;;;1.50;1.00;;;24.20;41.10;;;;;;5051001;28;20043;-65
2021/03/25 00:15:27;;;;;;;1.77;1.13;;;24.20;41.10;;;;;;5074102;28;20028;-65
2021/03/25 00:17:53;;;;;;;2.17;1.38;;;24.20;41.10;;;;;;5077989;28;20078;-65
2021/03/25 00:20:20;;;;;;;1.83;1.27;;;24.20;41.10;;;;;;5069837;28;20028;-65
2021/03/25 00:22:46;;;;;;;2.20;1.17;;;24.20;41.00;;;;;;5075581;28;20080;-65
2021/03/25 00:25:21;;;;;;;2.03;1.20;;;24.20;41.00;;;;;;5074788;28;20036;-66
2021/03/25 00:27:47;;;;;;;1.95;1.20;;;24.20;41.00;;;;;;5077295;28;20789;-65
2021/03/25 00:30:15;;;;;;;2.50;1.30;;;24.10;41.00;;;;;;5067603;28;20036;-65
2021/03/25 00:32:42;;;;;;;1.70;1.10;;;24.20;41.00;;;;;;5064835;28;20391;-65
2021/03/25 00:35:10;;;;;;;2.25;1.23;;;24.10;41.00;;;;;;5067690;28;20028;-65
2021/03/25 00:37:37;;;;;;;2.27;1.40;;;24.10;41.00;;;;;;5061455;28;20056;-65
2021/03/25 00:40:04;;;;;;;2.13;1.13;;;24.10;41.00;;;;;;5065421;28;20032;-65
2021/03/25 00:42:30;;;;;;;1.77;1.10;;;24.10;40.90;;;;;;5066451;28;20029;-65
2021/03/25 00:44:55;;;;;;;1.98;1.10;;;24.10;40.90;;;;;;5067620;28;20039;-65
2021/03/25 00:47:21;;;;;;;1.60;1.15;;;24.10;40.90;;;;;;5048567;28;20035;-65
2021/03/25 00:49:47;;;;;;;1.90;1.25;;;24.10;41.00;;;;;;5067622;28;20168;-65
2021/03/25 00:52:12;;;;;;;1.52;1.10;;;24.10;40.90;;;;;;5071257;28;20107;-66
2021/03/25 00:54:38;;;;;;;2.13;1.30;;;24.10;40.90;;;;;;5068293;28;20547;-65
2021/03/25 00:57:09;;;;;;;1.80;1.30;;;24.10;40.90;;;;;;5080923;28;20039;-65
2021/03/25 00:59:34;;;;;;;2.28;1.40;;;24.10;41.00;;;;;;5065026;28;20024;-65
2021/03/25 01:02:00;;;;;;;2.25;1.30;;;24.10;40.90;;;;;;5069896;28;20051;-65
2021/03/25 01:04:26;;;;;;;1.73;1.10;;;24.10;40.90;;;;;;5048270;28;20028;-65
2021/03/25 01:06:52;;;;;;;2.20;1.20;;;24.00;40.80;;;;;;5074689;28;20095;-65
2021/03/25 01:09:26;;;;;;;1.65;1.02;;;24.00;40.80;;;;;;5069858;28;20081;-65
2021/03/25 01:11:53;;;;;;;2.53;1.23;;;24.00;40.80;;;;;;5071280;28;20032;-65
2021/03/25 01:14:22;;;;;;;2.92;1.25;;;24.00;40.80;;;;;;5071667;28;20036;-65
2021/03/25 01:16:49;;;;;;;1.90;1.20;;;24.00;40.80;;;;;;5075755;28;20533;-65
2021/03/25 01:19:25;;;;;;;2.65;1.30;;;24.00;40.80;;;;;;5083522;28;20105;-65
2021/03/25 01:21:52;;;;;;;1.55;1.02;;;24.00;40.80;;;;;;5069979;28;20028;-65
2021/03/25 01:24:18;;;;;;;1.70;1.13;;;24.00;40.80;;;;;;5071614;28;20028;-65
2021/03/25 01:26:44;;;;;;;1.83;1.10;;;24.00;40.80;;;;;;5069072;28;20596;-66
2021/03/25 01:29:10;;;;;;;1.85;1.10;;;24.00;40.80;;;;;;5067902;28;20439;-65
2021/03/25 01:31:36;;;;;;;2.05;1.27;;;23.90;40.70;;;;;;5081333;28;20051;-65
2021/03/25 01:34:03;;;;;;;1.95;1.20;;;24.00;40.80;;;;;;5055772;28;20166;-65
2021/03/25 01:36:29;;;;;;;2.60;1.30;;;24.00;40.80;;;;;;5043808;28;20126;-65
2021/03/25 01:38:55;;;;;;;1.48;1.10;;;24.00;40.80;;;;;;5068325;28;20139;-65
2021/03/25 01:41:21;;;;;;;1.92;1.10;;;23.90;40.70;;;;;;5074423;28;20102;-65
2021/03/25 01:43:47;;;;;;;2.40;1.30;;;23.90;40.70;;;;;;5068919;28;20036;-65
2021/03/25 01:46:25;;;;;;;1.85;1.20;;;23.90;40.70;;;;;;5064449;28;20071;-65
2021/03/25 01:48:54;;;;;;;1.58;1.10;;;23.90;40.70;;;;;;5055470;28;20025;-65
2021/03/25 01:51:45;;;;;;;2.20;1.20;;;23.90;40.70;;;;;;5078203;28;20028;-66
2021/03/25 01:54:32;;;;;;;3.15;1.20;;;23.90;40.70;;;;;;5069676;28;20107;-66
2021/03/25 01:57:22;;;;;;;1.83;1.17;;;23.90;40.70;;;;;;5075578;28;20741;-65
2021/03/25 01:59:53;;;;;;;2.15;1.20;;;23.90;40.70;;;;;;5073503;28;20031;-65
2021/03/25 02:02:21;;;;;;;1.70;1.08;;;23.90;40.70;;;;;;5033927;28;20032;-65
2021/03/25 02:05:02;;;;;;;2.20;1.27;;;23.90;40.70;;;;;;5063517;28;20793;-66
2021/03/25 02:07:42;;;;;;;1.63;1.00;;;23.90;40.70;;;;;;5067483;28;20437;-66
2021/03/25 02:10:24;;;;;;;1.30;0.90;;;23.80;40.70;;;;;;5074006;28;20086;-66
2021/03/25 02:12:55;;;;;;;1.98;1.10;;;23.90;40.70;;;;;;5068554;28;20459;-66
2021/03/25 02:15:28;;;;;;;2.60;1.10;;;23.80;40.70;;;;;;5072285;28;20914;-66
2021/03/25 02:18:01;;;;;;;1.63;1.00;;;23.90;40.70;;;;;;5071204;28;20904;-66
2021/03/25 02:21:10;;;;;;;1.85;1.20;;;23.80;40.70;;;;;;5074366;28;20024;-66
2021/03/25 02:24:07;;;;;;;2.95;1.42;;;23.80;40.70;;;;;;5064187;28;20044;-66
2021/03/25 02:26:42;;;;;;;1.55;1.00;;;23.80;40.70;;;;;;5075142;28;20035;-66
2021/03/25 02:29:37;;;;;;;1.60;1.00;;;23.80;40.70;;;;;;5054419;28;20056;-66
2021/03/25 02:32:07;;;;;;;1.63;1.00;;;23.80;40.70;;;;;;5069668;28;20048;-66
2021/03/25 02:34:37;;;;;;;1.80;1.10;;;23.80;40.70;;;;;;5068410;28;20094;-66
2021/03/25 02:37:06;;;;;;;1.42;1.02;;;23.80;40.70;;;;;;5085080;28;20032;-66
2021/03/25 02:39:37;;;;;;;;;;;23.70;40.70;;;;;;5076698;28;20028;-66
2021/03/25 02:42:07;;;;;;;1.67;1.10;;;23.70;40.70;;;;;;5076364;28;19919;-66
2021/03/25 02:44:40;;;;;;;1.20;1.00;;;23.70;40.70;;;;;;5075248;28;20030;-66
2021/03/25 02:47:08;;;;;;;1.50;1.00;;;23.70;40.70;;;;;;5067701;28;20152;-66
2021/03/25 02:49:42;;;;;;;1.58;1.08;;;23.70;40.70;;;;;;5068452;28;20131;-66
2021/03/25 02:52:14;;;;;;;1.52;1.00;;;23.70;40.70;;;;;;5069438;28;20128;-66
2021/03/25 02:54:40;;;;;;;1.42;1.00;;;23.70;40.70;;;;;;5074455;28;20514;-66
2021/03/25 02:57:21;;;;;;;1.40;1.00;;;23.70;40.70;;;;;;5071944;28;20585;-66
2021/03/25 02:59:48;;;;;;;1.23;1.00;;;23.70;40.70;;;;;;5071149;28;20749;-66
2021/03/25 03:02:29;;;;;;;1.83;1.00;;;23.70;40.70;;;;;;5064790;28;20064;-66
2021/03/25 03:05:01;;;;;;;1.70;1.10;;;23.70;40.80;;;;;;5045412;28;20033;-66
2021/03/25 03:07:32;;;;;;;1.45;1.00;;;23.70;40.70;;;;;;5070765;28;20467;-66
2021/03/25 03:10:04;;;;;;;1.70;1.20;;;23.70;40.70;;;;;;5045331;28;20024;-66
2021/03/25 03:12:41;;;;;;;3.10;1.10;;;23.60;40.70;;;;;;5063872;28;20145;-66
2021/03/25 03:15:10;;;;;;;1.55;1.00;;;23.60;40.70;;;;;;5059040;28;20369;-66
2021/03/25 03:17:44;;;;;;;1.67;1.10;;;23.60;40.70;;;;;;5049199;28;20038;-66
2021/03/25 03:20:32;;;;;;;1.90;1.10;;;23.70;40.80;;;;;;5069836;28;20111;-66
2021/03/25 03:22:57;;;;;;;1.45;1.00;;;23.60;40.70;;;;;;5046992;28;20037;-66
2021/03/25 03:25:25;;;;;;;1.63;1.10;;;23.60;40.70;;;;;;5067499;28;20085;-66
2021/03/25 03:27:58;;;;;;;1.35;0.90;;;23.60;40.70;;;;;;5076159;28;20054;-66
2021/03/25 03:30:37;;;;;;;1.50;1.08;;;23.60;40.70;;;;;;5067509;28;20147;-66
2021/03/25 03:33:14;;;;;;;1.52;0.88;;;23.60;40.70;;;;;;5073616;28;20028;-66
2021/03/25 03:35:51;;;;;;;1.63;1.00;;;23.60;40.70;;;;;;5070420;28;20037;-66
2021/03/25 03:38:34;;;;;;;1.30;0.90;;;23.60;40.70;;;;;;5071969;28;20051;-66
2021/03/25 03:41:02;;;;;;;1.30;0.95;;;23.60;40.70;;;;;;5085951;28;20024;-66
2021/03/25 03:43:29;;;;;;;1.40;1.00;;;23.60;40.80;;;;;;5076095;28;20111;-66
2021/03/25 03:46:03;;;;;;;1.80;0.95;;;23.60;40.80;;;;;;5053985;28;20071;-66
2021/03/25 03:48:36;;;;;;;1.85;1.20;;;23.60;40.80;;;;;;5063003;28;20024;-66
2021/03/25 03:51:05;;;;;;;1.70;1.00;;;23.50;40.70;;;;;;5044843;28;20024;-66
2021/03/25 03:53:31;;;;;;;1.35;1.00;;;23.50;40.70;;;;;;5075418;28;20102;-66
2021/03/25 03:56:08;;;;;;;1.88;1.10;;;23.50;40.70;;;;;;5078771;28;20043;-66
2021/03/25 03:58:50;;;;;;;1.50;0.95;;;23.50;40.70;;;;;;5076143;28;20060;-66
2021/03/25 04:01:46;;;;;;;1.85;1.00;;;23.50;40.70;;;;;;5068475;28;20033;-66
2021/03/25 04:04:23;;;;;;;1.00;0.90;;;23.50;40.70;;;;;;5072314;28;20062;-66
2021/03/25 04:07:03;;;;;;;1.08;0.90;;;23.50;40.70;;;;;;5066003;28;20463;-66
2021/03/25 04:09:43;;;;;;;1.60;1.10;;;23.50;40.70;;;;;;5047297;28;20644;-65
2021/03/25 04:12:13;;;;;;;;;;;23.50;40.70;;;;;;5081977;28;20134;-66
2021/03/25 04:14:46;;;;;;;1.23;0.90;;;23.50;40.70;;;;;;5076105;28;20331;-66
2021/03/25 04:17:16;;;;;;;1.38;1.00;;;23.50;40.70;;;;;;5066468;28;20039;-66
2021/03/25 04:19:44;;;;;;;1.85;0.93;;;23.40;40.60;;;;;;5042394;28;20604;-66
2021/03/25 04:22:21;;;;;;;1.42;1.10;;;23.40;40.60;;;;;;5067219;28;20510;-66
2021/03/25 04:25:04;;;;;;;1.30;0.90;;;23.40;40.70;;;;;;5077239;28;20067;-66
2021/03/25 04:27:48;;;;;;;1.92;1.10;;;23.50;40.70;;;;;;5065548;28;20032;-66
2021/03/25 04:30:19;;;;;;;1.27;0.80;;;23.40;40.60;;;;;;5074392;28;20476;-66
2021/03/25 04:32:49;;;;;;;1.05;0.90;;;23.40;40.70;;;;;;5073702;28;20376;-66
2021/03/25 04:35:17;;;;;;;1.42;1.02;;;23.40;40.70;;;;;;5062729;28;20032;-66
2021/03/25 04:37:42;;;;;;;1.80;0.98;;;23.40;40.70;;;;;;5071637;28;20047;-66
2021/03/25 04:40:15;;;;;;;1.20;0.80;;;23.40;40.70;;;;;;5067227;28;20032;-66
2021/03/25 04:42:45;;;;;;;1.83;1.10;;;23.40;40.70;;;;;;5072048;28;20038;-66
2021/03/25 04:45:20;;;;;;;1.92;1.10;;;23.40;40.70;;;;;;5077135;28;20097;-66
2021/03/25 04:47:49;;;;;;;1.77;0.90;;;23.40;40.70;;;;;;5085411;28;20489;-66
2021/03/25 04:50:22;;;;;;;1.10;1.00;;;23.40;40.60;;;;;;5086897;28;20055;-66
2021/03/25 04:52:47;;;;;;;1.67;0.98;;;23.40;40.60;;;;;;5066668;28;20035;-66
2021/03/25 04:55:21;;;;;;;1.15;0.90;;;23.40;40.60;;;;;;5070196;28;20740;-66
2021/03/25 04:58:09;;;;;;;1.27;0.90;;;23.40;40.60;;;;;;5084522;28;20042;-66
2021/03/25 05:00:41;;;;;;;1.30;0.90;;;23.40;40.70;;;;;;5071805;28;20037;-66
2021/03/25 05:03:20;;;;;;;1.23;0.90;;;23.40;40.70;;;;;;5072963;28;20046;-66
2021/03/25 05:05:46;;;;;;;1.13;0.90;;;23.40;40.60;;;;;;5067642;28;20851;-66
2021/03/25 05:08:25;;;;;;;1.33;0.90;;;23.40;40.70;;;;;;5066476;28;20050;-66
2021/03/25 05:10:55;;;;;;;0.90;0.80;;;23.40;40.60;;;;;;5046380;28;20032;-66
2021/03/25 05:13:36;;;;;;;1.35;1.02;;;23.40;40.70;;;;;;5065744;28;20032;-66
2021/03/25 05:16:16;;;;;;;1.52;1.00;;;23.40;40.60;;;;;;5071877;28;20465;-66
2021/03/25 05:18:53;;;;;;;1.38;0.95;;;23.40;40.60;;;;;;5070693;28;20145;-66
2021/03/25 05:21:30;;;;;;;1.40;1.10;;;23.40;40.60;;;;;;5066529;28;20017;-66
2021/03/25 05:24:01;;;;;;;1.75;1.00;;;23.40;40.60;;;;;;5080967;28;20032;-66
2021/03/25 05:26:35;;;;;;;1.10;0.98;;;23.30;40.60;;;;;;5054919;28;20028;-66
2021/03/25 05:29:03;;;;;;;1.55;1.15;;;23.30;40.60;;;;;;5063506;28;20375;-66
2021/03/25 05:31:31;;;;;;;1.13;0.90;;;23.30;40.60;;;;;;5062701;28;20037;-66
2021/03/25 05:34:00;;;;;;;1.48;0.90;;;23.30;40.60;;;;;;5058886;28;20030;-66
2021/03/25 05:36:27;;;;;;;1.73;1.00;;;23.30;40.50;;;;;;5077297;28;20020;-66
2021/03/25 05:38:57;;;;;;;1.25;0.90;;;23.30;40.60;;;;;;5065914;28;20032;-66
2021/03/25 05:41:53;;;;;;;2.30;1.00;;;23.30;40.60;;;;;;5070950;28;20029;-66
2021/03/25 05:44:47;;;;;;;1.60;1.00;;;23.30;40.60;;;;;;5070907;28;20028;-66
2021/03/25 05:47:37;;;;;;;1.10;0.90;;;23.30;40.50;;;;;;5048804;28;20037;-65
2021/03/25 05:50:31;;;;;;;1.50;0.98;;;23.30;40.50;;;;;;5057224;28;20059;-66
2021/03/25 05:52:57;;;;;;;1.02;0.93;;;23.30;40.50;;;;;;5075098;28;20053;-66
2021/03/25 05:55:54;;;;;;;1.45;1.00;;;23.30;40.50;;;;;;5068648;28;20029;-66
2021/03/25 05:58:29;;;;;;;1.63;1.00;;;23.30;40.60;;;;;;5078127;28;20768;-65
2021/03/25 06:01:20;;;;;;;1.40;1.00;;;23.30;40.50;;;;;;5075334;28;20032;-65
2021/03/25 06:04:01;;;;;;;1.52;1.10;;;23.30;40.50;;;;;;5071026;28;20024;-66
2021/03/25 06:06:36;;;;;;;1.20;0.90;;;23.30;40.50;;;;;;5064341;28;20020;-66
2021/03/25 06:09:12;;;;;;;1.67;1.15;;;23.30;40.40;;;;;;5068418;28;20033;-65
2021/03/25 06:12:14;;;;;;;1.60;1.20;;;23.30;40.40;;;;;;5054712;28;20105;-65
2021/03/25 06:14:40;;;;;;;1.92;1.20;;;23.30;40.30;;;;;;5070090;28;20541;-66
2021/03/25 06:17:31;;;;;;;1.73;1.20;;;23.30;40.30;;;;;;5069721;28;20037;-65
2021/03/25 06:20:14;;;;;;;2.33;1.30;;;23.30;40.20;;;;;;5071475;28;20091;-65
2021/03/25 06:22:52;;;;;;;1.67;1.10;;;23.30;40.20;;;;;;5079570;28;20024;-65
2021/03/25 06:25:59;;;;;;;1.60;1.10;;;23.30;40.20;;;;;;5058789;28;20036;-65
2021/03/25 06:28:37;;;;;;;1.90;1.10;;;23.30;40.10;;;;;;5071000;28;20047;-65
2021/03/25 06:31:29;;;;;;;2.17;1.13;;;23.30;40.10;;;;;;5070340;28;20198;-65
2021/03/25 06:34:15;;;;;;;2.88;1.15;;;23.30;40.10;;;;;;5072515;28;20395;-65
2021/03/25 06:37:01;;;;;;;2.30;1.30;;;23.30;40.10;;;;;;5078988;28;20036;-65
2021/03/25 06:39:50;;;;;;;2.17;1.10;;;23.20;40.00;;;;;;5072371;28;20028;-65
2021/03/25 06:42:37;;;;;;;1.70;1.00;;;23.20;40.00;;;;;;5028501;28;20040;-65
2021/03/25 06:45:24;;;;;;;2.08;1.10;;;23.20;40.00;;;;;;5071473;28;20377;-65
2021/03/25 06:48:11;;;;;;;1.80;1.10;;;23.20;40.00;;;;;;5070817;28;20032;-65
2021/03/25 06:50:43;;;;;;;1.58;1.10;;;23.20;40.00;;;;;;5082149;28;20051;-66
2021/03/25 06:53:28;;;;;;;2.10;1.30;;;23.20;40.00;;;;;;5068298;28;20056;-66
2021/03/25 06:56:02;;;;;;;1.77;1.10;;;23.20;40.00;;;;;;5065190;28;20118;-66
2021/03/25 06:58:37;;;;;;;1.83;1.10;;;23.20;40.00;;;;;;5067657;28;20017;-65
2021/03/25 07:01:11;;;;;;;2.08;1.20;;;23.20;40.00;;;;;;5065405;28;20044;-65
2021/03/25 07:03:37;;;;;;;1.88;1.27;;;23.20;40.10;;;;;;5067920;28;20082;-65
2021/03/25 07:06:05;;;;;;;1.40;1.02;;;23.20;40.10;;;;;;5066930;28;20029;-65
2021/03/25 07:08:32;;;;;;;1.20;0.90;;;23.20;40.10;;;;;;5047498;28;20029;-65
2021/03/25 07:11:04;;;;;;;1.52;1.20;;;23.20;40.10;;;;;;5047754;28;20839;-65
2021/03/25 07:13:35;;;;;;;2.83;1.20;;;23.20;40.10;;;;;;5065307;28;20025;-65
2021/03/25 07:16:01;;;;;;;2.00;1.30;;;23.20;40.10;;;;;;5062185;28;20556;-65
2021/03/25 07:18:43;;;;;;;1.98;1.17;;;23.20;40.10;;;;;;5067566;28;20037;-65
2021/03/25 07:21:30;;;;;;;1.88;1.00;;;23.20;40.10;;;;;;5063980;28;20033;-65
2021/03/25 07:23:58;;;;;;;2.30;1.25;;;23.20;40.20;;;;;;5044724;28;20035;-65
2021/03/25 07:26:30;;;;;;;2.05;1.25;;;23.20;40.20;;;;;;5063357;28;20059;-72
2021/03/25 07:29:17;;;;;;;1.75;1.27;;;23.20;40.20;;;;;;5072241;28;20052;-72
2021/03/25 07:31:51;;;;;;;1.67;1.10;;;23.30;40.30;;;;;;5064111;28;20040;-70
2021/03/25 07:34:36;;;;;;;1.73;1.10;;;23.30;40.30;;;;;;5066109;28;20557;-70
2021/03/25 07:37:05;;;;;;;1.60;0.90;;;23.30;40.30;;;;;;5064747;28;20063;-68
2021/03/25 07:39:38;;;;;;;1.83;1.10;;;23.30;40.40;;;;;;5065459;28;20060;-69
2021/03/25 07:42:04;;;;;;;2.75;1.23;;;23.30;40.40;;;;;;5065936;28;20036;-71
2021/03/25 07:44:42;;;;;;;1.80;1.15;;;23.30;40.40;;;;;;5066196;28;20107;-67
2021/03/25 07:47:31;;;;;;;1.85;1.30;;;23.40;40.50;;;;;;5047064;28;20032;-64
2021/03/25 07:50:18;;;;;;;1.67;1.10;;;23.40;40.60;;;;;;5048715;28;20305;-66
2021/03/25 07:52:44;;;;;;;1.90;1.10;;;23.40;40.60;;;;;;5042844;28;20513;-72
2021/03/25 07:55:31;;;;;;;2.47;1.30;;;23.40;40.60;;;;;;5057883;28;20067;-68
2021/03/25 07:57:58;;;;;;;2.22;1.20;;;23.50;40.60;;;;;;5067757;28;20044;-66
2021/03/25 08:00:33;;;;;;;1.65;1.20;;;23.50;40.50;;;;;;5064070;28;20421;-71
2021/03/25 08:03:17;;;;;;;1.70;1.20;;;23.50;40.50;;;;;;5048445;28;20036;-67
2021/03/25 08:05:45;;;;;;;1.55;1.00;;;23.60;40.60;;;;;;5075942;28;20020;-70
2021/03/25 08:08:19;;;;;;;1.60;1.20;;;23.60;40.60;;;;;;5073677;28;20093;-71
2021/03/25 08:10:46;;;;;;;1.73;1.17;;;23.60;40.50;;;;;;5077935;28;20084;-70
2021/03/25 08:13:18;;;;;;;1.65;1.00;;;23.60;40.50;;;;;;5051820;28;20144;-71
2021/03/25 08:15:47;;;;;;;2.38;1.13;;;23.60;40.60;;;;;;5046756;28;20052;-70
2021/03/25 08:18:26;;;;;;;2.05;1.20;;;23.70;40.80;;;;;;5065882;28;20033;-70
2021/03/25 08:21:00;;;;;;;1.30;0.82;;;23.70;40.70;;;;;;5064155;28;20142;-72
2021/03/25 08:24:05;;;;;;;1.33;0.88;;;23.70;40.60;;;;;;5060389;28;20483;-71
2021/03/25 08:26:50;;;;;;;1.58;1.00;;;23.70;40.70;;;;;;5020513;28;20046;-71
2021/03/25 08:29:33;;;;;;;1.95;1.13;;;23.70;40.80;;;;;;5064919;28;20682;-72
2021/03/25 08:32:20;;;;;;;1.63;1.10;;;23.80;41.20;;;;;;5064011;28;20047;-67
2021/03/25 08:35:20;;;;;;;1.70;1.27;;;23.80;40.70;;;;;;5065094;28;20028;-70
2021/03/25 08:38:21;;;;;;;1.63;1.10;;;23.80;40.70;;;;;;5047459;28;20044;-70
2021/03/25 08:41:01;;;;;;;1.73;1.17;;;23.80;40.70;;;;;;5046073;28;20087;-71
2021/03/25 08:43:52;;;;;;;1.80;1.17;;;23.90;41.20;;;;;;5066068;28;20040;-71
2021/03/25 08:46:33;;;;;;;1.52;1.02;;;23.90;40.70;;;;;;5059281;28;20028;-71
2021/03/25 08:49:05;;;;;;;1.67;1.08;;;23.90;41.20;;;;;;5063682;28;20582;-68
2021/03/25 08:51:38;;;;;;;1.48;1.08;;;23.90;40.70;;;;;;5063583;28;20107;-72
2021/03/25 08:54:16;;;;;;;1.55;1.10;;;23.90;40.60;;;;;;5067897;28;20111;-71
2021/03/25 08:56:45;;;;;;;1.80;1.10;;;24.00;40.70;;;;;;5054039;28;20047;-70
2021/03/25 08:59:13;;;;;;;2.05;1.13;;;24.00;41.30;;;;;;5063264;28;20028;-68
2021/03/25 09:01:47;;;;;;;1.35;1.00;;;24.00;40.70;;;;;;5070280;28;20044;-69
2021/03/25 09:04:14;;;;;;;2.35;1.17;;;24.00;40.70;;;;;;5049467;28;20017;-71
2021/03/25 09:06:44;;;;;;;1.27;0.90;;;24.00;40.70;;;;;;5059132;28;20031;-69
2021/03/25 09:09:16;;;;;;;2.42;1.00;;;24.00;40.70;;;;;;5064631;28;20359;-68
2021/03/25 09:11:42;;;;;;;1.70;1.08;;;24.10;40.70;;;;;;5057718;28;20032;-70
2021/03/25 09:14:18;;;;;;;1.20;0.93;;;24.10;40.70;;;;;;5062441;28;20551;-71
2021/03/25 09:16:44;;;;;;;1.45;1.15;;;24.10;40.70;;;;;;5059028;28;20047;-68
2021/03/25 09:19:30;;;;;;;1.80;1.02;;;24.10;40.70;;;;;;5064867;28;20028;-69
2021/03/25 09:21:58;;;;;;;1.42;1.00;;;24.10;40.70;;;;;;5046396;28;20067;-71
2021/03/25 09:24:24;;;;;;;1.50;1.00;;;24.10;40.70;;;;;;5064107;28;20025;-69
2021/03/25 09:26:51;;;;;;;1.70;0.98;;;24.20;40.70;;;;;;5067139;28;20107;-71
2021/03/25 09:29:21;;;;;;;2.33;0.90;;;24.20;40.70;;;;;;5064131;28;20036;-72
2021/03/25 09:31:55;;;;;;;;;;;24.20;40.70;;;;;;5065407;28;20040;-70
2021/03/25 09:34:23;;;;;;;1.35;0.95;;;24.20;40.70;;;;;;5068530;28;20347;-69
2021/03/25 09:37:13;;;;;;;1.42;1.00;;;24.20;40.70;;;;;;5063137;28;20039;-70
2021/03/25 09:39:39;;;;;;;;;;;24.30;40.80;;;;;;5066376;28;20099;-69
2021/03/25 09:42:17;;;;;;;1.48;1.00;;;24.30;40.70;;;;;;5064901;28;20003;-68
2021/03/25 09:44:43;;;;;;;1.58;1.00;;;24.30;40.70;;;;;;5038840;28;20032;-72
2021/03/25 09:47:16;;;;;;;1.50;1.02;;;24.30;40.60;;;;;;5063580;28;20107;-71
2021/03/25 09:49:54;;;;;;;1.88;1.10;;;24.30;40.70;;;;;;5064401;28;20097;-70
2021/03/25 09:52:28;;;;;;;1.15;0.80;;;24.40;40.80;;;;;;5074377;28;20039;-71
2021/03/25 09:54:57;;;;;;;1.38;0.90;;;24.40;40.70;;;;;;5064060;28;20056;-69
2021/03/25 09:57:29;;;;;;;1.25;0.90;;;24.30;40.70;;;;;;5044863;28;20024;-71
2021/03/25 09:59:54;;;;;;;1.40;1.00;;;24.40;40.80;;;;;;5064462;28;20028;-67
2021/03/25 10:02:41;;;;;;;1.50;1.05;;;24.40;40.70;;;;;;5045626;28;20388;-67
2021/03/25 10:05:25;;;;;;;2.17;1.13;;;24.40;41.20;;;;;;5042721;28;20074;-67
2021/03/25 10:07:59;;;;;;;2.83;1.00;;;24.40;40.70;;;;;;5065080;28;20032;-62
2021/03/25 10:10:44;;;;;;;1.45;0.90;;;24.40;40.70;;;;;;5069063;28;20033;-65
2021/03/25 10:13:14;;;;;;;1.35;0.85;;;24.40;40.70;;;;;;5062611;28;20033;-62
2021/03/25 10:15:46;;;;;;;1.23;1.00;;;24.40;40.60;;;;;;5062856;28;20115;-63
2021/03/25 10:18:14;;;;;;;1.33;0.88;;;24.40;40.60;;;;;;5069103;28;20111;-62
2021/03/25 10:20:52;;;;;;;1.58;0.98;;;24.50;40.70;;;;;;5065662;28;20051;-63
2021/03/25 10:23:18;;;;;;;1.95;1.00;;;24.50;40.70;;;;;;5066537;28;20020;-61
2021/03/25 10:25:44;;;;;;;1.40;0.88;;;24.60;40.80;;;;;;5066899;28;20066;-61
2021/03/25 10:28:14;;;;;;;1.92;1.00;;;24.60;40.80;;;;;;5063334;28;20075;-61
2021/03/25 10:30:40;;;;;;;1.63;0.95;;;24.60;40.80;;;;;;5065935;28;20110;-63
2021/03/25 10:33:11;;;;;;;1.35;0.90;;;24.60;40.90;;;;;;5073762;28;20147;-64
2021/03/25 10:35:49;;;;;;;1.77;0.90;;;24.60;40.90;;;;;;5070485;28;20020;-64
2021/03/25 10:38:20;;;;;;;1.93;0.93;;;24.60;40.80;;;;;;5062986;28;20059;-61
2021/03/25 10:40:47;;;;;;;1.80;0.90;;;24.60;40.80;;;;;;5064059;28;20055;-62
2021/03/25 10:43:25;;;;;;;1.23;0.98;;;24.60;40.70;;;;;;5066713;28;20031;-63
2021/03/25 10:46:06;;;;;;;1.73;0.90;;;24.70;40.80;;;;;;5063703;28;20017;-65
2021/03/25 10:48:36;;;;;;;1.63;0.90;;;24.70;40.80;;;;;;5062275;28;20055;-63
2021/03/25 10:51:12;;;;;;;1.80;1.05;;;24.70;40.80;;;;;;5065159;28;20033;-62
2021/03/25 10:53:43;;;;;;;1.50;1.05;;;24.70;40.80;;;;;;5066120;28;20028;-62
2021/03/25 10:56:24;;;;;;;2.00;1.00;;;24.70;40.70;;;;;;5065173;28;20391;-63
2021/03/25 10:59:11;;;;;;;1.25;0.90;;;24.80;40.80;;;;;;5057778;28;20566;-63
2021/03/25 11:01:47;;;;;;;2.38;1.00;;;24.80;40.90;;;;;;5068382;28;20098;-62
2021/03/25 11:04:20;;;;;;;1.70;1.00;;;24.80;40.80;;;;;;5063872;28;20056;-61
2021/03/25 11:06:46;;;;;;;1.40;1.00;;;24.80;40.80;;;;;;5059412;28;20040;-59
2021/03/25 11:09:26;;;;;;;1.73;1.13;;;24.80;40.80;;;;;;5065813;28;20036;-63
2021/03/25 11:12:12;;;;;;;1.75;1.00;;;24.80;40.80;;;;;;5059132;28;20066;-63
2021/03/25 11:14:44;;;;;;;1.73;0.95;;;24.80;40.80;;;;;;5049083;28;20097;-64
2021/03/25 11:17:31;;;;;;;1.35;0.90;;;24.80;40.80;;;;;;5061276;28;20429;-64
2021/03/25 11:20:05;;;;;;;2.10;0.80;;;24.80;40.80;;;;;;5070271;28;20119;-63
2021/03/25 11:22:33;;;;;;;1.50;0.90;;;24.90;40.80;;;;;;5053211;28;20135;-64
2021/03/25 11:25:00;;;;;;;1.20;0.90;;;24.90;40.80;;;;;;5076958;28;20081;-63
2021/03/25 11:27:28;;;;;;;1.85;1.00;;;25.00;40.80;;;;;;5052308;28;20056;-62
2021/03/25 11:30:21;;;;;;;1.92;1.15;;;25.00;40.80;;;;;;5063136;28;20356;-60
2021/03/25 11:32:47;;;;;;;1.20;0.95;;;25.00;40.80;;;;;;5061274;28;20060;-63
2021/03/25 11:35:42;;;;;;;1.92;1.10;;;25.00;40.80;;;;;;5069595;28;20463;-63
2021/03/25 11:38:30;;;;;;;1.38;1.00;;;25.00;40.80;;;;;;5065525;28;20045;-63
2021/03/25 11:41:00;;;;;;;1.45;0.90;;;25.00;40.80;;;;;;5078047;28;20483;-64
2021/03/25 11:43:44;;;;;;;1.80;1.10;;;25.10;41.00;;;;;;5049480;28;20156;-64
2021/03/25 11:46:23;;;;;;;1.10;0.80;;;25.10;40.90;;;;;;5048488;28;20530;-63
2021/03/25 11:49:03;;;;;;;1.35;1.00;;;25.10;40.80;;;;;;5047635;28;20116;-64
2021/03/25 11:51:30;;;;;;;2.08;1.05;;;25.10;40.70;;;;;;5067206;28;20039;-63
2021/03/25 11:53:59;;;;;;;1.70;0.90;;;25.10;40.60;;;;;;5048627;28;20037;-63
2021/03/25 11:56:32;;;;;;;1.15;0.90;;;25.10;40.60;;;;;;5078178;28;20024;-66
2021/03/25 11:59:03;;;;;;;1.08;0.80;;;25.10;40.50;;;;;;5073938;28;20086;-62
2021/03/25 12:01:33;;;;;;;0.90;0.80;;;25.10;40.50;;;;;;5072724;28;20043;-64
2021/03/25 12:04:13;;;;;;;1.58;0.77;;;25.20;40.60;;;;;;5062682;28;20054;-63
2021/03/25 12:07:01;;;;;;;1.00;0.80;;;25.20;40.60;;;;;;5072383;28;20028;-63
2021/03/25 12:09:28;;;;;;;1.40;0.88;;;25.20;40.60;;;;;;5066650;28;20037;-65
2021/03/25 12:11:54;;;;;;;1.13;0.77;;;25.30;40.70;;;;;;5065933;28;20017;-66
2021/03/25 12:14:22;;;;;;;1.40;0.90;;;25.20;40.60;;;;;;5037961;28;20136;-63
2021/03/25 12:16:57;;;;;;;1.25;0.80;;;25.20;40.70;;;;;;5060531;28;20028;-63
2021/03/25 12:19:23;;;;;;;1.13;0.80;;;25.30;40.80;;;;;;5071765;28;20379;-63
2021/03/25 12:21:50;;;;;;;1.70;1.10;;;25.30;40.90;;;;;;5082257;28;20047;-62
2021/03/25 12:24:15;;;;;;;0.80;0.73;;;25.30;40.90;;;;;;5053307;28;20031;-63
2021/03/25 12:26:41;;;;;;;0.80;0.70;;;25.30;40.80;;;;;;5064933;28;20024;-63
2021/03/25 12:29:07;;;;;;;1.60;0.70;;;25.30;40.80;;;;;;5047660;28;20048;-62
2021/03/25 12:31:36;;;;;;;0.95;0.73;;;25.30;40.90;;;;;;5065660;28;20438;-63
2021/03/25 12:34:04;;;;;;;0.68;0.68;;;25.30;40.90;;;;;;5065972;28;20028;-64
2021/03/25 12:36:30;;;;;;;1.10;0.80;;;25.40;41.00;;;;;;5047131;28;20044;-67
2021/03/25 12:38:56;;;;;;;0.75;0.75;;;25.40;40.90;;;;;;5055446;28;20028;-67
2021/03/25 12:41:44;;;;;;;1.25;0.90;;;25.40;40.90;;;;;;5041709;28;20099;-66
2021/03/25 12:44:15;;;;;;;1.10;0.90;;;25.40;40.80;;;;;;5069578;28;20037;-62
2021/03/25 12:46:42;;;;;;;1.17;0.80;;;25.50;40.90;;;;;;5046369;28;20484;-64
2021/03/25 12:49:08;;;;;;;1.00;0.80;;;25.50;40.70;;;;;;5063578;28;20154;-61
2021/03/25 12:51:34;;;;;;;1.23;0.90;;;25.50;40.70;;;;;;5065555;28;20029;-64
2021/03/25 12:54:00;;;;;;;1.20;0.90;;;25.60;40.80;;;;;;5047149;28;20406;-62
2021/03/25 12:56:31;;;;;;;0.95;0.80;;;25.50;40.80;;;;;;5064234;28;20035;-66
2021/03/25 12:58:59;;;;;;;1.05;0.80;;;25.60;40.80;;;;;;5045612;28;20530;-63
2021/03/25 13:01:27;;;;;;;1.27;0.88;;;25.60;40.80;;;;;;5056013;28;20059;-63
2021/03/25 13:03:53;;;;;;;1.15;0.70;;;25.60;40.80;;;;;;5041943;28;20624;-64
2021/03/25 13:06:19;;;;;;;1.60;0.80;;;25.60;40.80;;;;;;5056336;28;20103;-64
2021/03/25 13:08:45;;;;;;;1.50;0.82;;;25.70;40.90;;;;;;5056139;28;20582;-65
2021/03/25 13:11:31;;;;;;;1.23;0.90;;;25.70;41.20;;;;;;5061179;28;20033;-63
2021/03/25 13:13:57;;;;;;;1.50;0.90;;;25.70;40.80;;;;;;5062576;28;20052;-64
2021/03/25 13:16:24;;;;;;;0.80;0.80;;;25.70;40.60;;;;;;5062050;28;20075;-66
2021/03/25 13:18:50;;;;;;;1.48;0.90;;;25.70;40.40;;;;;;5049676;28;20032;-61
2021/03/25 13:21:16;;;;;;;1.42;1.00;;;25.70;40.40;;;;;;5075878;28;20136;-63
2021/03/25 13:23:42;;;;;;;1.45;0.90;;;25.80;40.40;;;;;;5065727;28;20028;-63